Time;durP1;ratioP1;P1;durP2;ratioP2;P2;SDS_P1;SDS_P2;PMS_P1;PMS_P2;Temp;Humidity;BMP_temperature;BMP_pressure;BME280_temperature;BME280_humidity;BME280_pressure;Samples;Min_cycle;Max_cycle;Signal;HPM_P1;HPM_P2
2021/06/01 00:00:12;;;;;;;2.23;1.40;;;18.20;8.80;;;;;;5081204;28;20222;-49
2021/06/01 00:02:39;;;;;;;2.27;1.50;;;18.20;8.70;;;;;;5084213;28;20300;-52
2021/06/01 00:05:08;;;;;;;3.20;1.80;;;18.10;7.90;;;;;;5083410;28;20246;-50
2021/06/01 00:07:35;;;;;;;4.83;1.90;;;18.10;8.00;;;;;;5081948;28;20618;-51
2021/06/01 00:10:06;;;;;;;4.80;1.97;;;18.10;7.20;;;;;;5080868;28;20261;-52
2021/06/01 00:12:33;;;;;;;2.40;1.80;;;18.10;5.50;;;;;;5080082;28;20738;-51
2021/06/01 00:15:00;;;;;;;3.27;1.53;;;18.10;6.00;;;;;;5078036;28;20581;-51
2021/06/01 00:17:27;;;;;;;7.57;1.43;;;18.00;4.90;;;;;;5079839;28;20313;-52
2021/06/01 00:19:56;;;;;;;3.50;1.77;;;18.10;6.00;;;;;;5078434;28;20423;-52
2021/06/01 00:22:23;;;;;;;1.80;1.67;;;18.10;5.00;;;;;;5064102;28;20254;-51
2021/06/01 00:24:50;;;;;;;2.43;1.77;;;18.00;5.60;;;;;;5081043;28;20496;-51
2021/06/01 00:27:17;;;;;;;4.03;1.80;;;17.90;5.90;;;;;;5077355;28;20218;-51
2021/06/01 00:29:43;;;;;;;2.03;1.60;;;17.90;6.10;;;;;;5079718;28;20300;-51
2021/06/01 00:32:11;;;;;;;1.97;1.37;;;17.90;8.30;;;;;;5084208;28;20346;-51
2021/06/01 00:34:38;;;;;;;3.40;1.70;;;17.90;9.20;;;;;;5082091;28;20585;-50
2021/06/01 00:37:05;;;;;;;2.30;1.40;;;17.90;7.80;;;;;;5079691;28;20291;-50
2021/06/01 00:39:32;;;;;;;1.50;1.40;;;17.90;6.00;;;;;;5078176;28;20562;-50
2021/06/01 00:41:59;;;;;;;2.07;1.50;;;17.90;5.20;;;;;;5081524;28;20242;-50
2021/06/01 00:44:25;;;;;;;1.70;1.57;;;17.80;6.60;;;;;;5081648;28;20324;-50
2021/06/01 00:46:52;;;;;;;3.23;1.77;;;17.80;7.50;;;;;;5082775;28;20291;-51
2021/06/01 00:49:19;;;;;;;1.60;1.37;;;17.80;6.10;;;;;;5082567;28;20225;-50
2021/06/01 00:51:46;;;;;;;3.40;1.70;;;17.80;6.50;;;;;;5078779;28;20387;-50
2021/06/01 00:54:13;;;;;;;1.60;1.43;;;17.80;7.60;;;;;;5078909;28;20289;-50
2021/06/01 00:56:42;;;;;;;2.83;1.50;;;17.70;8.80;;;;;;5079743;28;20594;-50
2021/06/01 00:59:09;;;;;;;2.03;1.57;;;17.70;10.30;;;;;;5079568;28;20202;-50
2021/06/01 01:01:36;;;;;;;2.37;1.33;;;17.60;8.00;;;;;;5082722;28;20209;-50
2021/06/01 01:04:03;;;;;;;1.80;1.20;;;17.60;6.50;;;;;;5075785;28;20244;-50
2021/06/01 01:06:42;;;;;;;2.70;1.40;;;17.60;7.00;;;;;;5080925;28;20223;-51
2021/06/01 01:09:14;;;;;;;1.90;1.70;;;17.60;5.50;;;;;;5082279;28;20192;-51
2021/06/01 01:11:43;;;;;;;1.80;1.33;;;17.60;8.00;;;;;;5080850;28;20795;-51
2021/06/01 01:14:12;;;;;;;2.17;1.30;;;17.70;7.60;;;;;;5082269;28;20196;-51
2021/06/01 01:16:48;;;;;;;3.47;1.43;;;17.60;6.90;;;;;;5074893;28;20296;-51
2021/06/01 01:19:23;;;;;;;2.13;1.37;;;17.60;7.40;;;;;;5080264;28;20239;-51
2021/06/01 01:21:52;;;;;;;2.40;1.73;;;17.60;8.40;;;;;;5080715;28;20293;-53
2021/06/01 01:24:45;;;;;;;1.80;1.47;;;17.50;8.10;;;;;;5083091;28;20215;-50
2021/06/01 01:27:22;;;;;;;2.40;1.60;;;17.50;8.70;;;;;;5079440;28;20244;-51
2021/06/01 01:29:50;;;;;;;2.87;1.80;;;17.50;9.20;;;;;;5084506;28;20432;-50
2021/06/01 01:32:40;;;;;;;2.60;1.60;;;17.50;9.80;;;;;;5084371;28;20459;-50
2021/06/01 01:35:10;;;;;;;2.53;1.63;;;17.50;9.80;;;;;;5079163;28;20282;-51
2021/06/01 01:37:37;;;;;;;3.40;2.00;;;17.40;8.60;;;;;;5085371;28;20210;-50
2021/06/01 01:40:06;;;;;;;2.07;1.50;;;17.40;9.00;;;;;;5080590;28;20286;-50
2021/06/01 01:42:42;;;;;;;1.77;1.43;;;17.30;10.20;;;;;;5083843;28;20280;-51
2021/06/01 01:45:27;;;;;;;2.27;1.70;;;17.30;9.60;;;;;;5083231;28;20301;-50
2021/06/01 01:50:47;;;;;;;2.30;1.80;;;17.20;11.50;;;;;;5084854;28;20608;-50
2021/06/01 01:53:19;;;;;;;2.13;1.40;;;17.10;12.80;;;;;;5083254;28;20629;-50
2021/06/01 01:55:49;;;;;;;2.83;1.67;;;17.10;15.00;;;;;;5082380;28;20226;-51
2021/06/01 01:58:18;;;;;;;3.97;1.60;;;17.10;16.30;;;;;;5082037;28;20299;-51
2021/06/01 02:00:48;;;;;;;2.37;1.67;;;17.00;16.30;;;;;;5084987;28;20700;-50
2021/06/01 02:03:16;;;;;;;2.93;1.60;;;17.00;15.80;;;;;;5085379;28;20285;-50
2021/06/01 02:05:44;;;;;;;3.30;1.83;;;16.90;16.10;;;;;;5086287;28;20617;-50
2021/06/01 02:08:12;;;;;;;4.83;1.83;;;16.90;17.70;;;;;;5083499;28;20281;-50
2021/06/01 02:10:39;;;;;;;6.77;2.47;;;16.80;18.60;;;;;;5082957;28;20284;-50
2021/06/01 02:13:06;;;;;;;2.27;2.03;;;16.70;18.40;;;;;;5084838;28;20204;-50
2021/06/01 02:15:33;;;;;;;3.07;1.80;;;16.70;19.00;;;;;;5081506;28;20580;-50
2021/06/01 02:18:00;;;;;;;4.57;1.90;;;16.60;19.60;;;;;;5084134;28;20732;-51
2021/06/01 02:20:27;;;;;;;3.20;1.90;;;16.50;21.70;;;;;;5084368;28;20300;-51
2021/06/01 02:26:09;;;;;;;3.63;2.30;;;16.50;22.70;;;;;;5083913;28;20274;-51
2021/06/01 02:28:42;;;;;;;1.90;1.80;;;16.40;23.80;;;;;;5080401;28;20833;-50
2021/06/01 02:31:19;;;;;;;5.10;1.90;;;16.40;24.40;;;;;;5084314;28;20626;-50
2021/06/01 02:33:49;;;;;;;3.87;1.80;;;16.50;24.30;;;;;;5079705;28;20682;-50
2021/06/01 02:36:17;;;;;;;3.00;2.03;;;16.40;26.00;;;;;;5083613;28;20247;-50
2021/06/01 02:38:45;;;;;;;3.23;2.30;;;16.40;27.30;;;;;;5083074;28;20236;-51
2021/06/01 02:41:14;;;;;;;3.07;1.83;;;16.50;26.30;;;;;;5082901;28;20317;-50
2021/06/01 02:43:41;;;;;;;3.10;1.83;;;16.50;27.00;;;;;;5081113;28;20200;-50
2021/06/01 02:46:08;;;;;;;4.13;2.40;;;16.40;28.80;;;;;;5083172;28;20263;-51
2021/06/01 02:48:35;;;;;;;3.53;1.97;;;16.30;29.60;;;;;;5083431;28;20248;-51
2021/06/01 02:51:15;;;;;;;2.50;2.00;;;16.20;30.20;;;;;;5084921;28;20602;-51
2021/06/01 02:53:48;;;;;;;3.63;2.20;;;16.20;29.90;;;;;;5080958;28;20548;-51
2021/06/01 02:56:16;;;;;;;4.30;2.20;;;16.30;32.30;;;;;;5082909;28;20287;-52
2021/06/01 02:58:44;;;;;;;2.80;1.77;;;16.30;34.10;;;;;;5080643;28;20307;-51
2021/06/01 03:01:13;;;;;;;2.97;1.73;;;16.30;33.60;;;;;;5083231;28;21514;-52
2021/06/01 03:03:52;;;;;;;2.07;1.70;;;16.20;34.50;;;;;;5077911;28;20229;-52
2021/06/01 03:06:26;;;;;;;5.87;2.30;;;16.20;35.80;;;;;;5083103;28;20221;-52
2021/06/01 03:08:53;;;;;;;3.77;2.30;;;16.10;36.50;;;;;;5080364;28;20193;-52
2021/06/01 03:11:21;;;;;;;5.00;2.20;;;16.10;35.50;;;;;;5082396;28;20269;-52
2021/06/01 03:13:50;;;;;;;3.03;2.10;;;16.10;35.90;;;;;;5080386;28;20205;-52
2021/06/01 03:16:19;;;;;;;5.47;2.40;;;16.10;36.70;;;;;;5080102;28;20302;-52
2021/06/01 03:18:46;;;;;;;3.33;2.10;;;16.00;38.70;;;;;;5080288;28;20255;-51
2021/06/01 03:21:13;;;;;;;6.30;2.43;;;16.00;39.70;;;;;;5084553;28;20571;-51
2021/06/01 03:23:41;;;;;;;3.67;2.07;;;15.90;39.70;;;;;;5079594;28;20304;-51
2021/06/01 03:26:09;;;;;;;4.93;2.33;;;15.90;41.30;;;;;;5082370;28;20236;-51
2021/06/01 03:28:36;;;;;;;4.23;2.30;;;15.90;41.70;;;;;;5083098;28;21010;-51
2021/06/01 03:31:03;;;;;;;4.43;2.20;;;15.90;42.10;;;;;;5082347;28;20193;-51
2021/06/01 03:33:30;;;;;;;3.53;2.40;;;15.80;42.80;;;;;;5081301;28;20218;-51
2021/06/01 03:35:57;;;;;;;3.97;2.47;;;15.80;42.50;;;;;;5079590;28;20240;-52
2021/06/01 03:38:25;;;;;;;5.40;2.33;;;15.70;44.60;;;;;;5080942;28;20236;-51
2021/06/01 03:40:53;;;;;;;4.23;2.77;;;15.80;45.50;;;;;;5082212;28;20311;-52
2021/06/01 03:43:19;;;;;;;3.13;2.30;;;15.80;44.30;;;;;;5084298;28;20294;-52
2021/06/01 03:45:46;;;;;;;3.63;2.03;;;15.70;45.70;;;;;;5080312;28;20565;-52
2021/06/01 03:48:13;;;;;;;3.53;2.23;;;15.70;49.10;;;;;;5083390;28;20192;-52
2021/06/01 03:50:40;;;;;;;3.37;2.80;;;15.70;49.10;;;;;;5081942;28;20594;-52
2021/06/01 03:53:07;;;;;;;2.97;2.27;;;15.70;49.20;;;;;;5084802;28;20703;-51
2021/06/01 03:55:34;;;;;;;5.80;2.37;;;15.70;47.20;;;;;;5082536;28;20590;-51
2021/06/01 03:58:00;;;;;;;2.63;2.23;;;15.70;49.50;;;;;;5080756;28;20246;-51
2021/06/01 04:00:30;;;;;;;5.03;2.50;;;15.70;51.40;;;;;;5080276;28;20252;-51
2021/06/01 04:02:59;;;;;;;7.10;2.53;;;15.70;52.30;;;;;;5080805;28;20239;-51
2021/06/01 04:05:25;;;;;;;4.30;2.37;;;15.80;52.30;;;;;;5080806;28;20217;-52
2021/06/01 04:07:53;;;;;;;2.97;2.40;;;15.80;53.90;;;;;;5083176;28;20233;-51
2021/06/01 04:10:20;;;;;;;4.07;2.67;;;15.70;52.80;;;;;;5084052;28;20253;-51
2021/06/01 04:12:47;;;;;;;4.37;2.50;;;15.70;53.70;;;;;;5081196;28;20258;-51
2021/06/01 04:15:14;;;;;;;4.17;2.93;;;15.70;58.10;;;;;;5078503;28;20237;-50
2021/06/01 04:17:41;;;;;;;3.40;2.50;;;15.70;56.00;;;;;;5079434;28;20354;-52
2021/06/01 04:20:09;;;;;;;4.77;2.53;;;15.80;56.00;;;;;;5082170;28;20278;-51
2021/06/01 04:22:35;;;;;;;3.13;2.83;;;15.80;55.80;;;;;;5080307;28;20643;-55
2021/06/01 04:25:05;;;;;;;5.03;2.90;;;15.80;57.20;;;;;;5078277;28;20217;-52
2021/06/01 04:27:32;;;;;;;3.50;2.53;;;15.80;60.10;;;;;;5079868;28;20330;-52
2021/06/01 04:29:58;;;;;;;6.73;2.90;;;15.80;58.00;;;;;;5081436;28;20237;-51
2021/06/01 04:32:25;;;;;;;5.10;2.93;;;15.70;60.80;;;;;;5077520;28;20864;-51
2021/06/01 04:34:52;;;;;;;6.53;2.70;;;15.80;63.30;;;;;;5080334;28;20256;-51
2021/06/01 04:37:19;;;;;;;4.93;3.03;;;15.80;60.00;;;;;;5082333;28;20676;-51
2021/06/01 04:39:46;;;;;;;4.03;2.43;;;15.80;64.00;;;;;;5081968;28;20233;-51
2021/06/01 04:42:13;;;;;;;3.73;3.07;;;15.80;60.90;;;;;;5080712;28;20727;-51
2021/06/01 04:44:39;;;;;;;6.00;2.80;;;15.80;65.10;;;;;;5081711;28;20727;-51
2021/06/01 04:47:07;;;;;;;6.43;3.53;;;15.80;62.20;;;;;;5082404;28;20591;-50
2021/06/01 04:49:35;;;;;;;5.83;3.03;;;15.90;66.60;;;;;;5080664;28;20234;-51
2021/06/01 04:52:02;;;;;;;8.03;3.10;;;15.90;64.80;;;;;;5075150;28;20714;-51
2021/06/01 04:54:29;;;;;;;4.30;2.73;;;15.90;66.10;;;;;;5080411;28;20235;-51
2021/06/01 04:56:56;;;;;;;7.20;3.53;;;16.00;66.90;;;;;;5083677;28;20629;-51
2021/06/01 04:59:23;;;;;;;5.23;3.03;;;16.00;57.40;;;;;;5083786;28;20209;-51
2021/06/01 05:01:50;;;;;;;8.97;3.73;;;16.10;59.50;;;;;;5083925;28;20206;-50
2021/06/01 05:04:17;;;;;;;3.60;2.90;;;16.20;61.70;;;;;;5082401;28;20207;-50
2021/06/01 05:06:43;;;;;;;4.93;3.43;;;16.20;64.80;;;;;;5085876;28;20285;-50
2021/06/01 05:09:10;;;;;;;4.33;3.30;;;16.40;64.50;;;;;;5086815;28;20615;-51
2021/06/01 05:11:37;;;;;;;5.70;3.17;;;16.40;60.60;;;;;;5084053;28;20279;-51
2021/06/01 05:14:10;;;;;;;4.80;3.10;;;16.50;56.70;;;;;;5083280;28;20242;-51
2021/06/01 05:16:37;;;;;;;5.00;3.13;;;16.50;66.60;;;;;;5086730;28;20229;-51
2021/06/01 05:19:04;;;;;;;7.63;3.53;;;16.70;66.10;;;;;;5084470;28;20762;-51
2021/06/01 05:21:31;;;;;;;5.00;3.47;;;16.60;58.60;;;;;;5086813;28;20281;-52
2021/06/01 05:23:58;;;;;;;3.93;3.13;;;16.70;70.70;;;;;;5081643;28;20244;-51
2021/06/01 05:26:28;;;;;;;5.87;3.30;;;16.90;56.50;;;;;;5081732;28;20651;-52
2021/06/01 05:28:55;;;;;;;4.17;3.07;;;17.00;66.30;;;;;;5083341;28;20572;-51
2021/06/01 05:31:31;;;;;;;4.47;3.30;;;17.20;62.50;;;;;;5082150;28;20266;-52
2021/06/01 05:34:01;;;;;;;5.73;3.30;;;17.20;56.00;;;;;;5086551;28;20196;-53
2021/06/01 05:36:28;;;;;;;3.97;3.23;;;17.30;60.90;;;;;;5084380;28;20285;-50
2021/06/01 05:38:55;;;;;;;5.40;3.67;;;17.40;52.80;;;;;;5079201;28;20259;-50
2021/06/01 05:41:22;;;;;;;4.97;3.37;;;17.30;51.00;;;;;;5086910;28;20289;-51
2021/06/01 05:43:49;;;;;;;6.63;3.50;;;17.40;56.00;;;;;;5068211;28;21028;-51
2021/06/01 05:46:15;;;;;;;4.07;3.50;;;17.50;54.20;;;;;;5085307;28;20205;-50
2021/06/01 05:48:43;;;;;;;5.77;3.53;;;17.60;57.70;;;;;;5084414;28;20204;-51
2021/06/01 05:51:11;;;;;;;5.47;3.83;;;17.80;53.50;;;;;;5083885;28;20203;-51
2021/06/01 05:53:38;;;;;;;4.70;3.13;;;17.80;52.20;;;;;;5085551;28;20658;-51
2021/06/01 05:56:05;;;;;;;4.67;3.17;;;17.80;59.30;;;;;;5084584;28;20229;-50
2021/06/01 05:58:32;;;;;;;5.60;3.20;;;17.80;48.40;;;;;;5087373;28;20220;-51
2021/06/01 06:00:59;;;;;;;5.20;3.90;;;17.90;55.00;;;;;;5081478;28;20653;-51
2021/06/01 06:03:26;;;;;;;6.50;3.80;;;17.90;49.60;;;;;;5084078;28;20200;-51
2021/06/01 06:05:53;;;;;;;9.17;4.43;;;18.00;55.30;;;;;;5087718;28;20213;-51
2021/06/01 06:08:20;;;;;;;5.13;4.03;;;18.10;52.80;;;;;;5081801;28;20270;-51
2021/06/01 06:10:49;;;;;;;4.63;3.30;;;18.20;52.90;;;;;;5085172;28;20241;-50
2021/06/01 06:13:16;;;;;;;5.67;3.50;;;18.20;54.60;;;;;;5084401;28;20600;-51
2021/06/01 06:15:43;;;;;;;7.20;3.73;;;18.20;51.10;;;;;;5080493;28;20445;-50
2021/06/01 06:18:26;;;;;;;4.50;3.30;;;18.10;43.60;;;;;;5082935;28;20577;-51
2021/06/01 06:20:59;;;;;;;5.73;4.03;;;18.10;48.10;;;;;;5086552;28;20201;-50
2021/06/01 06:23:26;;;;;;;6.73;3.70;;;18.40;52.80;;;;;;5085564;28;20656;-51
2021/06/01 06:25:53;;;;;;;4.93;3.30;;;18.50;43.00;;;;;;5087472;28;20269;-51
2021/06/01 06:28:20;;;;;;;6.43;3.80;;;18.40;47.90;;;;;;5077383;28;20222;-51
2021/06/01 06:30:47;;;;;;;7.43;4.00;;;18.60;45.60;;;;;;5102548;27;20248;-51
2021/06/01 06:33:14;;;;;;;7.00;4.43;;;18.70;43.50;;;;;;5085103;28;20840;-51
2021/06/01 06:35:41;;;;;;;4.27;3.47;;;18.90;41.20;;;;;;5084914;28;20624;-51
2021/06/01 06:38:08;;;;;;;6.80;3.30;;;19.00;36.40;;;;;;5084528;28;20203;-50
2021/06/01 06:40:34;;;;;;;4.80;3.67;;;19.20;38.60;;;;;;5082351;28;20249;-52
2021/06/01 06:43:01;;;;;;;6.57;3.70;;;19.40;32.80;;;;;;5085890;28;20269;-51
2021/06/01 06:45:31;;;;;;;5.60;4.07;;;19.60;35.00;;;;;;5084805;28;20599;-51
2021/06/01 06:48:05;;;;;;;7.33;4.63;;;19.70;29.90;;;;;;5086143;28;20666;-51
2021/06/01 06:50:33;;;;;;;6.10;4.10;;;19.70;28.20;;;;;;5084238;28;20740;-52
2021/06/01 06:53:02;;;;;;;7.00;4.07;;;19.90;28.60;;;;;;5082316;28;20203;-51
2021/06/01 06:55:30;;;;;;;6.07;3.80;;;20.10;27.30;;;;;;5084530;28;20292;-51
2021/06/01 06:57:56;;;;;;;5.87;4.10;;;19.90;30.40;;;;;;5077707;28;20302;-50
2021/06/01 07:00:24;;;;;;;6.37;4.20;;;20.00;24.20;;;;;;5082473;28;20282;-51
2021/06/01 07:02:51;;;;;;;7.90;4.20;;;20.00;27.00;;;;;;5083720;28;20581;-50
2021/06/01 07:05:20;;;;;;;4.87;3.70;;;20.40;25.10;;;;;;5080215;28;20624;-50
2021/06/01 07:07:51;;;;;;;6.63;3.93;;;20.70;25.80;;;;;;5081429;28;20578;-52
2021/06/01 07:10:19;;;;;;;7.60;4.37;;;20.90;20.70;;;;;;5082399;28;20222;-51
2021/06/01 07:12:47;;;;;;;5.47;3.67;;;21.20;18.60;;;;;;5082743;28;20692;-51
2021/06/01 07:15:15;;;;;;;5.43;3.97;;;21.40;20.30;;;;;;5079286;28;20324;-50
2021/06/01 07:17:45;;;;;;;9.67;4.57;;;21.10;15.70;;;;;;5083596;28;20226;-50
2021/06/01 07:20:15;;;;;;;5.30;3.83;;;21.20;18.40;;;;;;5075938;28;20198;-51
2021/06/01 07:22:42;;;;;;;5.70;3.70;;;21.20;15.40;;;;;;5076767;28;20194;-51
2021/06/01 07:25:10;;;;;;;6.50;3.70;;;21.40;14.90;;;;;;5079730;28;20207;-51
2021/06/01 07:27:37;;;;;;;5.03;3.80;;;21.60;13.30;;;;;;5079833;28;20271;-51
2021/06/01 07:30:06;;;;;;;4.83;3.70;;;21.90;16.50;;;;;;5080593;28;20202;-51
2021/06/01 07:32:33;;;;;;;6.47;3.50;;;21.90;13.90;;;;;;5081747;28;20306;-51
2021/06/01 07:35:01;;;;;;;5.50;4.13;;;22.40;12.70;;;;;;5077485;28;20315;-51
2021/06/01 07:37:29;;;;;;;5.77;3.80;;;22.40;10.50;;;;;;5080277;28;20193;-51
2021/06/01 07:39:55;;;;;;;5.43;3.70;;;22.70;12.20;;;;;;5081860;28;20626;-51
2021/06/01 07:42:24;;;;;;;4.97;3.53;;;22.60;9.90;;;;;;5080041;28;20279;-51
2021/06/01 07:44:51;;;;;;;4.60;3.63;;;22.80;8.40;;;;;;5078530;28;20198;-51
2021/06/01 07:47:18;;;;;;;5.93;3.70;;;22.80;6.30;;;;;;5082665;28;20190;-51
2021/06/01 07:49:45;;;;;;;4.50;3.60;;;22.70;4.80;;;;;;5077179;28;20300;-51
2021/06/01 07:52:12;;;;;;;4.13;3.23;;;22.80;3.00;;;;;;5080457;28;20441;-50
2021/06/01 07:54:39;;;;;;;6.40;4.10;;;22.90;4.20;;;;;;5078970;28;20226;-51
2021/06/01 07:57:06;;;;;;;4.93;3.78;;;23.20;3.70;;;;;;5080560;28;20536;-50
2021/06/01 07:59:33;;;;;;;5.00;3.40;;;23.80;1.80;;;;;;5076196;28;20226;-49
2021/06/01 08:02:00;;;;;;;5.07;3.30;;;25.30;1.00;;;;;;5079191;28;20534;-50
2021/06/01 08:04:27;;;;;;;4.07;3.67;;;25.50;1.00;;;;;;5080242;28;20199;-49
2021/06/01 08:06:54;;;;;;;4.30;3.27;;;25.80;1.00;;;;;;5079941;28;20691;-49
2021/06/01 08:09:21;;;;;;;9.30;3.50;;;25.50;1.00;;;;;;5078062;28;20364;-50
2021/06/01 08:11:47;;;;;;;5.53;3.43;;;25.90;1.00;;;;;;5079737;28;20815;-49
2021/06/01 08:14:15;;;;;;;4.10;2.83;;;26.50;1.00;;;;;;5077173;28;20275;-50
2021/06/01 08:16:45;;;;;;;5.57;3.10;;;26.40;1.00;;;;;;5077809;28;20201;-50
2021/06/01 08:19:15;;;;;;;5.00;3.07;;;26.40;1.00;;;;;;5077698;28;20228;-49
2021/06/01 08:24:15;;;;;;;6.73;3.20;;;27.60;1.00;;;;;;5079589;28;20305;-49
2021/06/01 08:26:43;;;;;;;4.73;3.70;;;28.20;1.00;;;;;;5079514;28;20300;-49
2021/06/01 08:29:11;;;;;;;5.57;3.23;;;27.80;1.00;;;;;;5078975;28;20262;-49
2021/06/01 08:31:39;;;;;;;6.33;3.23;;;27.10;1.00;;;;;;5079921;28;20239;-50
2021/06/01 08:34:06;;;;;;;5.80;3.00;;;27.50;1.00;;;;;;5078665;28;20206;-50
2021/06/01 08:36:33;;;;;;;3.67;2.83;;;28.30;1.00;;;;;;5080611;28;20677;-49
2021/06/01 08:39:00;;;;;;;4.00;2.87;;;28.60;1.00;;;;;;5078793;28;20339;-49
2021/06/01 08:41:28;;;;;;;3.60;3.30;;;28.50;1.00;;;;;;5080376;28;20194;-49
2021/06/01 08:43:59;;;;;;;5.55;2.85;;;27.90;1.00;;;;;;5077869;28;20269;-49
2021/06/01 08:46:27;;;;;;;3.60;2.67;;;27.10;1.00;;;;;;5079548;28;20239;-49
2021/06/01 08:48:55;;;;;;;7.03;2.73;;;27.70;1.00;;;;;;5079682;28;20191;-49
2021/06/01 08:51:24;;;;;;;3.90;2.90;;;27.70;1.00;;;;;;5080190;28;20278;-50
2021/06/01 08:53:52;;;;;;;4.07;3.65;;;28.10;1.00;;;;;;5079739;28;20226;-50
2021/06/01 08:56:19;;;;;;;4.47;3.05;;;28.10;1.00;;;;;;5079406;28;20906;-49
2021/06/01 08:58:49;;;;;;;2.85;2.28;;;28.70;1.00;;;;;;5079021;28;20233;-50
2021/06/01 09:01:18;;;;;;;4.30;2.95;;;29.20;1.00;;;;;;5078870;28;20651;-50
2021/06/01 09:03:51;;;;;;;3.88;2.90;;;28.80;1.00;;;;;;5080945;28;20617;-50
2021/06/01 09:22:33;;;;;;;5.93;2.30;;;27.40;1.00;;;;;;5081810;28;20234;-50
2021/06/01 09:25:13;;;;;;;3.70;2.47;;;28.30;1.00;;;;;;5084421;28;20214;-49
2021/06/01 09:27:55;;;;;;;2.97;2.40;;;28.40;1.00;;;;;;5078811;28;20289;-50
2021/06/01 09:31:01;;;;;;;2.83;2.57;;;28.30;1.00;;;;;;5075815;28;20230;-50
2021/06/01 09:33:30;;;;;;;2.27;1.90;;;27.90;1.00;;;;;;5080556;28;20621;-50
2021/06/01 09:36:03;;;;;;;2.23;2.00;;;27.90;1.00;;;;;;5079346;28;20626;-49
2021/06/01 09:38:43;;;;;;;2.37;1.90;;;28.00;1.00;;;;;;5080717;28;20861;-49
2021/06/01 09:41:16;;;;;;;2.75;2.45;;;28.40;1.00;;;;;;5084388;28;20665;-49
2021/06/01 09:43:51;;;;;;;3.42;2.10;;;27.90;1.00;;;;;;5072806;28;20275;-48
2021/06/01 09:46:35;;;;;;;2.90;2.00;;;27.40;1.00;;;;;;5087222;28;20462;-49
2021/06/01 09:49:15;;;;;;;4.00;2.07;;;28.00;1.00;;;;;;5085423;28;20260;-49
2021/06/01 09:51:51;;;;;;;2.27;1.90;;;27.80;1.00;;;;;;5083022;28;20225;-49
2021/06/01 09:54:58;;;;;;;2.60;1.70;;;27.30;1.00;;;;;;5083172;28;20236;-50
2021/06/01 09:57:25;;;;;;;1.90;1.80;;;27.30;1.00;;;;;;5086165;28;20209;-49
2021/06/01 10:00:16;;;;;;;4.03;1.97;;;27.80;1.00;;;;;;5088021;28;20324;-49
2021/06/01 10:02:54;;;;;;;4.80;1.80;;;28.00;1.00;;;;;;5086036;28;20281;-50
2021/06/01 10:05:42;;;;;;;2.63;2.10;;;28.10;1.00;;;;;;5089602;28;20296;-49
2021/06/01 10:08:10;;;;;;;3.10;2.00;;;28.20;1.00;;;;;;5083118;28;20291;-49
2021/06/01 10:10:38;;;;;;;2.40;2.03;;;27.50;1.00;;;;;;5085793;28;20210;-49
2021/06/01 10:13:10;;;;;;;2.15;1.80;;;27.10;1.00;;;;;;5087672;28;20297;-49
2021/06/01 10:15:38;;;;;;;1.95;1.70;;;27.70;1.00;;;;;;5086450;28;20279;-49
2021/06/01 10:18:14;;;;;;;2.70;1.70;;;27.90;1.00;;;;;;5088273;28;20336;-48
2021/06/01 10:20:45;;;;;;;1.92;1.80;;;27.70;1.00;;;;;;5078707;28;20213;-49
2021/06/01 10:23:13;;;;;;;3.75;1.58;;;26.80;1.00;;;;;;5080626;28;20280;-50
2021/06/01 10:25:40;;;;;;;3.90;1.90;;;26.80;1.00;;;;;;5077678;28;20607;-49
2021/06/01 10:28:10;;;;;;;2.87;1.97;;;26.90;1.00;;;;;;5078250;28;20291;-50
2021/06/01 10:30:41;;;;;;;2.60;1.80;;;26.90;1.00;;;;;;5072777;28;20222;-48
2021/06/01 10:33:13;;;;;;;2.40;1.73;;;26.30;1.00;;;;;;5084509;28;20202;-49
2021/06/01 10:35:50;;;;;;;2.53;1.90;;;26.50;1.00;;;;;;5081945;28;20516;-51
2021/06/01 10:44:16;;;;;;;3.13;1.80;;;26.50;1.00;;;;;;5082905;28;20276;-50
2021/06/01 10:52:27;;;;;;;2.13;1.50;;;26.00;1.00;;;;;;5082004;28;20663;-50
2021/06/01 10:54:55;;;;;;;2.00;1.80;;;26.30;1.00;;;;;;5084538;28;20937;-51
2021/06/01 10:57:23;;;;;;;2.50;2.23;;;26.30;1.00;;;;;;5082715;28;20198;-52
2021/06/01 11:02:17;;;;;;;2.37;1.90;;;26.00;1.00;;;;;;5079157;28;20675;-50
2021/06/01 11:05:12;;;;;;;3.10;1.80;;;26.40;1.00;;;;;;5083323;28;20237;-51
2021/06/01 11:07:51;;;;;;;2.03;1.83;;;26.10;1.00;;;;;;5081835;28;20698;-51
2021/06/01 11:10:40;;;;;;;3.40;1.80;;;26.50;1.00;;;;;;5076789;28;20563;-51
2021/06/01 11:13:08;;;;;;;3.97;1.97;;;26.50;1.00;;;;;;5079920;28;20231;-52
2021/06/01 11:15:40;;;;;;;2.27;1.90;;;26.90;1.00;;;;;;5081900;28;20205;-51
2021/06/01 11:18:39;;;;;;;2.70;1.93;;;26.80;1.00;;;;;;5080954;28;20934;-52
2021/06/01 11:25:07;;;;;;;1.63;1.53;;;26.80;1.00;;;;;;5079286;28;20267;-51
2021/06/01 11:35:37;;;;;;;1.90;1.80;;;27.70;1.00;;;;;;5078889;28;20322;-50
2021/06/01 11:43:15;;;;;;;1.90;1.80;;;27.70;1.00;;;;;;5080288;28;20234;-50
2021/06/01 11:46:09;;;;;;;2.97;1.85;;;27.60;1.00;;;;;;5078615;28;20244;-50
2021/06/01 11:51:15;;;;;;;2.22;2.03;;;27.50;1.00;;;;;;5076427;28;20230;-51
2021/06/01 11:53:52;;;;;;;2.92;1.88;;;27.60;1.00;;;;;;5078431;28;20876;-51
2021/06/01 12:18:46;;;;;;;3.15;2.00;;;27.40;1.00;;;;;;5077454;28;20226;-51
2021/06/01 12:21:20;;;;;;;2.63;1.53;;;27.80;1.00;;;;;;5074990;28;20298;-50
2021/06/01 12:24:07;;;;;;;1.60;1.50;;;28.00;1.00;;;;;;5074353;28;20213;-51
2021/06/01 12:32:06;;;;;;;7.20;2.15;;;28.30;1.00;;;;;;5076037;28;20238;-50
2021/06/01 12:43:08;;;;;;;4.80;1.70;;;28.00;1.00;;;;;;5076771;28;20235;-51
2021/06/01 12:45:48;;;;;;;2.20;1.75;;;28.10;1.00;;;;;;5077441;28;20247;-50
2021/06/01 13:19:56;;;;;;;2.17;1.80;;;28.40;1.00;;;;;;5081760;28;20594;-50
2021/06/01 13:22:49;;;;;;;3.22;1.50;;;28.30;1.00;;;;;;5078360;28;20339;-50
2021/06/01 13:37:13;;;;;;;2.17;1.97;;;27.80;1.00;;;;;;5077750;28;20218;-51
2021/06/01 13:39:45;;;;;;;2.20;1.80;;;27.40;1.00;;;;;;5082081;28;20624;-50
2021/06/01 13:48:01;;;;;;;3.55;2.22;;;27.20;1.00;;;;;;5082692;28;20230;-51
2021/06/01 13:50:44;;;;;;;2.33;1.70;;;27.50;1.00;;;;;;5079946;28;20278;-51
2021/06/01 13:56:00;;;;;;;2.10;1.90;;;28.00;1.00;;;;;;5086385;28;20300;-51
2021/06/01 14:01:26;;;;;;;2.40;2.20;;;27.40;1.00;;;;;;5077152;28;20206;-52
2021/06/01 14:09:54;;;;;;;2.50;2.30;;;27.40;1.00;;;;;;5080471;28;20294;-51
2021/06/01 15:50:19;;;;;;;3.10;2.73;;;26.30;1.00;;;;;;5041109;28;20246;-51
2021/06/01 16:15:40;;;;;;;3.57;2.43;;;26.30;1.00;;;;;;5075051;28;20627;-50
2021/06/01 16:29:37;;;;;;;3.30;2.73;;;26.10;1.00;;;;;;5081993;28;20222;-51
2021/06/01 16:30:09;;;;;;;2.93;2.33;;;26.20;1.00;;;;;;5079867;28;20245;-51
2021/06/01 16:32:43;;;;;;;3.30;2.10;;;26.30;1.00;;;;;;5078015;28;20615;-51
2021/06/01 16:43:40;;;;;;;2.53;2.27;;;26.20;1.00;;;;;;5084769;28;20352;-49
2021/06/01 17:03:20;;;;;;;4.67;2.40;;;25.90;1.00;;;;;;5060854;28;20635;-49
2021/06/01 17:05:52;;;;;;;3.30;2.50;;;26.00;1.00;;;;;;5083448;28;20206;-50
2021/06/01 17:11:13;;;;;;;3.40;2.03;;;25.90;1.00;;;;;;5082602;28;20254;-50
2021/06/01 17:13:52;;;;;;;2.55;2.03;;;25.90;1.00;;;;;;5079195;28;20222;-50
2021/06/01 17:35:40;;;;;;;2.60;2.20;;;25.80;1.00;;;;;;5080829;28;20199;-51
2021/06/01 17:38:08;;;;;;;2.50;2.30;;;25.70;1.00;;;;;;5061531;28;20307;-50
2021/06/01 17:40:38;;;;;;;3.90;2.80;;;25.80;1.00;;;;;;5078878;28;20259;-51
2021/06/01 17:43:09;;;;;;;2.47;2.17;;;25.70;1.00;;;;;;5044165;28;20351;-51
2021/06/01 17:45:40;;;;;;;2.40;2.07;;;25.70;1.00;;;;;;5075629;28;20282;-51
2021/06/01 17:48:25;;;;;;;4.77;2.30;;;25.70;1.00;;;;;;5074169;28;20214;-50
2021/06/01 17:50:54;;;;;;;4.30;2.40;;;25.60;1.00;;;;;;5079043;28;20300;-51
2021/06/01 17:53:23;;;;;;;2.50;2.30;;;25.70;1.00;;;;;;5072561;28;20624;-51
2021/06/01 17:55:52;;;;;;;2.10;1.80;;;25.70;1.00;;;;;;5071429;28;20236;-51
2021/06/01 17:58:25;;;;;;;2.33;2.13;;;25.70;1.00;;;;;;5075120;28;20719;-50
2021/06/01 18:00:53;;;;;;;3.33;2.50;;;25.60;1.00;;;;;;5073697;28;20199;-50
2021/06/01 18:03:22;;;;;;;3.70;2.40;;;25.50;1.00;;;;;;5071983;28;20542;-51
2021/06/01 18:05:53;;;;;;;2.37;2.00;;;25.50;1.00;;;;;;5077067;28;20200;-51
2021/06/01 19:24:44;;;;;;;2.27;1.70;;;24.30;1.00;;;;;;5085202;28;20241;-51
2021/06/01 19:52:07;;;;;;;1.83;1.70;;;23.70;1.00;;;;;;5076386;28;20538;-51
2021/06/01 19:54:35;;;;;;;3.67;2.13;;;23.70;1.00;;;;;;5072833;28;20423;-51
2021/06/01 19:57:02;;;;;;;3.37;1.70;;;23.70;1.00;;;;;;5083425;28;20284;-52
2021/06/01 19:59:29;;;;;;;2.27;1.77;;;23.60;1.00;;;;;;5083182;28;20210;-52
2021/06/01 20:01:56;;;;;;;2.90;1.63;;;23.50;1.00;;;;;;5073890;28;20237;-52
2021/06/01 20:04:24;;;;;;;3.30;1.90;;;23.40;1.00;;;;;;5059111;28;20625;-50
2021/06/01 20:06:50;;;;;;;6.30;2.00;;;23.40;1.00;;;;;;5079601;28;20210;-50
2021/06/01 20:09:18;;;;;;;5.07;2.33;;;23.40;1.00;;;;;;5084539;28;20246;-50
2021/06/01 20:11:46;;;;;;;1.80;1.70;;;23.30;1.00;;;;;;5084372;28;20264;-50
2021/06/01 20:14:14;;;;;;;1.87;1.60;;;23.30;1.00;;;;;;4375119;28;10000701;-50
2021/06/01 20:16:46;;;;;;;3.77;1.50;;;23.30;1.00;;;;;;5073663;28;20584;-50
2021/06/01 20:19:16;;;;;;;2.27;2.07;;;23.10;1.00;;;;;;5075853;28;20607;-50
2021/06/01 20:21:47;;;;;;;1.90;1.70;;;23.10;1.00;;;;;;5074570;28;20330;-51